createdAt,value
2022-11-11T00:02:39.791Z,101863.66
2022-11-11T00:07:43.442Z,101861.52
2022-11-11T00:12:46.398Z,101863.64
2022-11-11T00:18:09.219Z,101871.04
2022-11-11T00:23:40.749Z,101872.73
2022-11-11T00:28:43.520Z,101879.41
2022-11-11T00:33:46.478Z,101881.98
2022-11-11T00:38:50.020Z,101877.55
2022-11-11T00:43:52.956Z,101877.50
2022-11-11T00:49:14.666Z,101876.49
2022-11-11T00:54:17.593Z,101873.73
2022-11-11T00:59:20.522Z,101878.17
2022-11-11T01:04:24.287Z,101878.13
2022-11-11T01:09:27.299Z,101882.45
2022-11-11T01:14:30.964Z,101874.67
2022-11-11T01:19:33.813Z,101877.84
2022-11-11T01:24:38.733Z,101874.38
2022-11-11T01:29:41.740Z,101876.13
2022-11-11T01:34:44.946Z,101876.89
2022-11-11T01:39:47.912Z,101868.39
2022-11-11T01:44:51.507Z,101870.59
2022-11-11T01:49:57.811Z,101871.15
2022-11-11T01:55:16.003Z,101870.12
2022-11-11T02:00:19.629Z,101860.77
2022-11-11T02:05:42.150Z,101854.29
2022-11-11T02:10:45.375Z,101848.60
2022-11-11T02:15:48.225Z,101844.27
2022-11-11T02:20:51.012Z,101843.23
2022-11-11T02:25:53.948Z,101838.23
2022-11-11T02:30:56.860Z,101837.85
2022-11-11T02:35:59.852Z,101840.10
2022-11-11T02:41:21.406Z,101847.56
2022-11-11T02:46:24.401Z,101855.39
2022-11-11T02:51:27.184Z,101864.05
2022-11-11T02:56:48.866Z,101868.45
2022-11-11T03:01:51.968Z,101870.79
2022-11-11T03:06:55.129Z,101878.42
2022-11-11T03:11:58.120Z,101879.61
2022-11-11T03:17:19.550Z,101890.67
2022-11-11T03:27:46.586Z,101889.30
2022-11-11T03:32:49.375Z,101892.66
2022-11-11T03:38:10.955Z,101891.08
2022-11-11T03:43:16.261Z,101882.80
2022-11-11T03:48:19.178Z,101885.58
2022-11-11T03:53:22.783Z,101888.27
2022-11-11T03:58:26.286Z,101900.48
2022-11-11T04:03:47.855Z,101906.22
2022-11-11T04:09:09.467Z,101904.71
2022-11-11T04:14:32.531Z,101907.45
2022-11-11T04:19:55.728Z,101906.35
2022-11-11T04:25:17.226Z,101906.30
2022-11-11T04:30:20.044Z,101923.42
2022-11-11T04:35:24.157Z,101932.27
2022-11-11T04:40:45.795Z,101939.04
2022-11-11T04:45:48.608Z,101932.60
2022-11-11T04:50:51.530Z,101924.90
2022-11-11T04:56:13.039Z,101919.63
2022-11-11T05:01:35.853Z,101929.61
2022-11-11T05:06:59.612Z,101932.84
2022-11-11T05:12:03.110Z,101935.58
2022-11-11T05:17:25.127Z,101937.65
2022-11-11T05:22:40.931Z,101938.48
2022-11-11T05:27:43.871Z,101932.87
2022-11-11T05:32:46.661Z,101919.86
2022-11-11T05:38:09.382Z,101923.23
2022-11-11T05:43:12.256Z,101916.55
2022-11-11T05:48:15.385Z,101914.86
2022-11-11T05:53:24.680Z,101918.05
2022-11-11T05:58:27.875Z,101917.44
2022-11-11T06:03:30.705Z,101927.11
2022-11-11T06:08:33.557Z,101932.52
2022-11-11T06:13:36.480Z,101924.68
2022-11-11T06:18:39.290Z,101926.37
2022-11-11T06:23:44.532Z,101921.37
2022-11-11T06:28:57.725Z,101921.28
2022-11-11T06:34:00.862Z,101919.66
2022-11-11T06:39:03.624Z,101931.04
2022-11-11T06:44:06.438Z,101933.26
2022-11-11T06:49:09.289Z,101932.34
2022-11-11T06:54:12.187Z,101935.30
2022-11-11T06:59:15.204Z,101942.14
2022-11-11T07:04:18.034Z,101941.63
2022-11-11T07:09:20.830Z,101947.23
2022-11-11T07:14:23.656Z,101942.30
2022-11-11T07:19:26.507Z,101931.14
2022-11-11T07:24:29.793Z,101927.70
2022-11-11T07:29:32.554Z,101928.14
2022-11-11T07:34:35.583Z,101924.58
2022-11-11T07:39:39.743Z,101918.05
2022-11-11T07:44:49.192Z,101900.73
2022-11-11T07:49:52.553Z,101900.80
2022-11-11T07:54:55.449Z,101900.20
2022-11-11T07:59:58.316Z,101907.93
2022-11-11T08:05:01.196Z,101907.69
2022-11-11T08:10:04.672Z,101914.05
2022-11-11T08:15:09.009Z,101934.69
2022-11-11T08:20:12.444Z,101940.35
2022-11-11T08:25:15.527Z,101947.21
2022-11-11T08:30:18.522Z,101945.91
2022-11-11T08:35:21.292Z,101943.83
2022-11-11T08:40:24.791Z,101950.85
2022-11-11T08:45:29.407Z,101956.20
2022-11-11T08:50:33.624Z,101952.56
2022-11-11T08:55:36.847Z,101941.10
2022-11-11T09:00:39.875Z,101947.60
2022-11-11T09:05:42.784Z,101952.73
2022-11-11T09:10:45.770Z,101948.90
2022-11-11T09:15:48.627Z,101951.39
2022-11-11T09:20:52.051Z,101954.04
2022-11-11T09:25:55.077Z,101949.73
2022-11-11T09:31:22.778Z,101949.15
2022-11-11T09:36:24.069Z,101942.83
2022-11-11T09:42:14.723Z,101938.20
2022-11-11T09:47:36.027Z,101939.97
2022-11-11T09:52:56.288Z,101932.55
2022-11-11T09:58:04.542Z,101934.83
2022-11-11T10:03:10.311Z,101923.77
2022-11-11T10:08:29.895Z,101917.14
2022-11-11T10:13:37.915Z,101922.71
2022-11-11T10:19:17.100Z,101904.38
2022-11-11T10:24:30.253Z,101900.91
2022-11-11T10:29:44.595Z,101909.54
2022-11-11T10:34:47.541Z,101898.98
2022-11-11T10:40:16.353Z,101895.98
2022-11-11T10:45:32.178Z,101904.07
2022-11-11T10:51:02.103Z,101904.77
2022-11-11T10:56:11.815Z,101907.15
2022-11-11T11:01:20.435Z,101904.92
2022-11-11T11:06:31.795Z,101895.61
2022-11-11T11:11:40.333Z,101889.27
2022-11-11T11:16:51.236Z,101888.46
2022-11-11T11:21:59.624Z,101883.59
2022-11-11T11:27:08.299Z,101880.60
2022-11-11T11:32:19.609Z,101876.41
2022-11-11T11:37:24.782Z,101869.63
2022-11-11T11:42:37.545Z,101869.46
2022-11-11T11:48:09.339Z,101868.14
2022-11-11T11:54:01.264Z,101871.62
2022-11-11T11:59:22.916Z,101868.86
2022-11-11T12:04:48.279Z,101869.08
2022-11-11T12:10:33.937Z,101871.91
2022-11-11T12:16:07.679Z,101855.52
2022-11-11T12:21:18.771Z,101855.10
2022-11-11T12:26:44.442Z,101862.93
2022-11-11T12:32:02.546Z,101869.68
2022-11-11T12:37:24.300Z,101870.66
2022-11-11T12:42:37.181Z,101870.53
2022-11-11T12:48:39.115Z,101878.79
2022-11-11T12:53:56.015Z,101877.83
2022-11-11T12:59:36.015Z,101883.23
2022-11-11T13:04:57.503Z,101876.38
2022-11-11T13:10:45.458Z,101863.68
2022-11-11T13:15:51.627Z,101862.66
2022-11-11T13:21:00.157Z,101866.35
2022-11-11T13:26:05.204Z,101862.40
2022-11-11T13:31:20.370Z,101851.73
2022-11-11T13:36:26.775Z,101848.73
2022-11-11T13:41:35.859Z,101841.31
2022-11-11T13:46:50.246Z,101844.98
2022-11-11T13:52:22.667Z,101838.27
2022-11-11T13:57:32.259Z,101843.02
2022-11-11T14:02:35.705Z,101841.92
2022-11-11T14:07:44.793Z,101848.54
2022-11-11T14:12:51.542Z,101851.56
2022-11-11T14:17:54.678Z,101851.31
2022-11-11T14:23:18.758Z,101859.08
2022-11-11T14:28:27.751Z,101862.01
2022-11-11T14:33:49.100Z,101858.75
2022-11-11T14:39:22.876Z,101869.75
2022-11-11T14:44:25.729Z,101868.23
2022-11-11T14:49:57.911Z,101871.69
2022-11-11T14:55:07.901Z,101880.40
2022-11-11T15:00:21.181Z,101872.17
2022-11-11T15:05:49.830Z,101885.60
2022-11-11T15:11:33.476Z,101882.10
2022-11-11T15:17:17.337Z,101880.95
2022-11-11T15:22:36.987Z,101885.15
2022-11-11T15:28:02.452Z,101890.55
2022-11-11T15:33:41.807Z,101897.96
2022-11-11T15:38:44.748Z,101892.23
2022-11-11T15:43:48.625Z,101892.61
2022-11-11T15:48:53.150Z,101900.92
2022-11-11T15:54:32.072Z,101908.38
2022-11-11T15:59:42.749Z,101919.65
2022-11-11T16:05:05.899Z,101922.05
2022-11-11T16:10:38.337Z,101913.75
2022-11-11T16:15:47.167Z,101917.89
2022-11-11T16:21:11.724Z,101918.21
2022-11-11T16:26:15.668Z,101914.41
2022-11-11T16:31:45.259Z,101907.41
2022-11-11T16:37:02.605Z,101903.50
2022-11-11T16:42:22.705Z,101904.19
2022-11-11T16:47:32.900Z,101896.84
2022-11-11T16:52:57.234Z,101899.04
2022-11-11T16:58:20.621Z,101894.69
2022-11-11T17:03:28.311Z,101904.59
2022-11-11T17:08:46.030Z,101900.02
2022-11-11T17:19:09.148Z,101919.67
2022-11-11T17:24:33.346Z,101933.65
2022-11-11T17:29:41.271Z,101938.51
2022-11-11T17:34:45.001Z,101944.31
2022-11-11T17:39:51.028Z,101942.27
2022-11-11T17:44:54.082Z,101940.06
2022-11-11T17:49:57.590Z,101939.80
2022-11-11T17:55:00.613Z,101933.94
2022-11-11T18:00:04.331Z,101934.92
2022-11-11T18:05:07.627Z,101931.63
2022-11-11T18:10:10.787Z,101930.58
2022-11-11T18:15:13.603Z,101935.48
2022-11-11T18:20:23.563Z,101927.55
2022-11-11T18:25:26.417Z,101921.35
2022-11-11T18:30:29.851Z,101909.40
2022-11-11T18:35:33.698Z,101906.77
2022-11-11T18:40:38.958Z,101914.71
2022-11-11T18:45:41.886Z,101916.66
2022-11-11T18:50:44.815Z,101926.04
2022-11-11T18:55:52.770Z,101933.08
2022-11-11T19:01:15.428Z,101935.95
2022-11-11T19:06:20.645Z,101941.73
2022-11-11T19:11:24.222Z,101947.01
2022-11-11T19:16:27.225Z,101948.05
2022-11-11T19:21:33.347Z,101954.88
2022-11-11T19:26:36.342Z,101966.64
2022-11-11T19:31:39.291Z,101970.20
2022-11-11T19:36:42.374Z,101974.22
2022-11-11T19:41:45.286Z,101983.72
2022-11-11T19:46:49.684Z,101994.08
2022-11-11T19:51:57.088Z,102001.17
2022-11-11T19:57:01.119Z,102003.11
2022-11-11T20:02:04.064Z,102006.30
2022-11-11T20:07:09.337Z,102002.48
2022-11-11T20:12:12.341Z,101997.13
2022-11-11T20:17:18.822Z,102001.34
2022-11-11T20:22:27.228Z,101994.87
2022-11-11T20:27:30.379Z,101992.93
2022-11-11T20:32:33.156Z,101978.97
2022-11-11T20:37:38.980Z,101995.08
2022-11-11T20:42:41.953Z,101997.95
2022-11-11T20:47:46.887Z,102002.49
2022-11-11T20:52:50.987Z,102005.02
2022-11-11T20:57:53.972Z,102012.86
2022-11-11T21:02:57.462Z,102014.77
2022-11-11T21:08:01.143Z,102016.58
2022-11-11T21:13:04.393Z,102014.66
2022-11-11T21:18:27.578Z,102014.81
2022-11-11T21:23:32.300Z,102016.25
2022-11-11T21:28:37.187Z,102015.09
2022-11-11T21:33:40.023Z,102017.96
2022-11-11T21:38:43.846Z,102011.14
2022-11-11T21:43:47.201Z,102018.45
2022-11-11T21:48:50.254Z,102015.77
2022-11-11T21:54:02.506Z,102021.70
2022-11-11T21:59:07.073Z,102026.15
2022-11-11T22:04:13.559Z,102029.70
2022-11-11T22:09:16.807Z,102032.51
2022-11-11T22:14:20.173Z,102031.83
2022-11-11T22:19:23.184Z,102031.39
2022-11-11T22:24:26.014Z,102035.14
2022-11-11T22:29:28.848Z,102031.06
2022-11-11T22:34:31.619Z,102037.54
2022-11-11T22:39:34.537Z,102037.44
2022-11-11T22:44:37.409Z,102034.80
2022-11-11T22:49:40.324Z,102034.57
2022-11-11T22:54:43.158Z,102030.33
2022-11-11T22:59:46.148Z,102026.32
2022-11-11T23:04:49.120Z,102027.85
2022-11-11T23:09:52.124Z,102027.86
2022-11-11T23:14:56.777Z,102029.78
2022-11-11T23:20:00.741Z,102029.71
2022-11-11T23:25:03.913Z,102032.66
2022-11-11T23:30:07.788Z,102032.59
2022-11-11T23:35:10.695Z,102032.77
2022-11-11T23:40:13.623Z,102029.02
2022-11-11T23:45:16.453Z,102036.02
2022-11-11T23:50:19.298Z,102037.92
2022-11-11T23:55:22.153Z,102038.44
